createdAt,value
2022-08-27T00:01:22.753Z,100021.59
2022-08-27T00:03:50.471Z,100016.09
2022-08-27T00:06:19.825Z,100018.75
2022-08-27T00:08:48.915Z,100013.56
2022-08-27T00:11:17.745Z,100011.88
2022-08-27T00:13:45.983Z,100000.47
2022-08-27T00:16:15.694Z,100006.69
2022-08-27T00:18:48.021Z,100005.09
2022-08-27T00:21:17.844Z,100005.09
2022-08-27T00:23:45.298Z,100000.84
2022-08-27T00:26:14.041Z,100001.81
2022-08-27T00:28:41.982Z,99996.81
2022-08-27T00:31:11.356Z,99997.69
2022-08-27T00:33:39.815Z,99990.72
2022-08-27T00:36:08.025Z,99999.38
2022-08-27T00:38:36.795Z,99998.63
2022-08-27T00:41:04.833Z,99999.56
2022-08-27T00:43:45.575Z,100003.25
2022-08-27T00:46:21.627Z,100009.38
2022-08-27T00:48:53.066Z,100008.63
2022-08-27T00:51:22.393Z,100010.31
2022-08-27T00:53:52.065Z,100006.94
2022-08-27T00:56:23.423Z,100014.09
2022-08-27T00:58:53.104Z,100022.97
2022-08-27T01:01:27.816Z,100011.28
2022-08-27T01:03:58.863Z,100006.97
2022-08-27T01:06:31.583Z,100008.50
2022-08-27T01:09:05.344Z,100019.69
2022-08-27T01:11:32.577Z,100019.25
2022-08-27T01:14:01.406Z,100021.31
2022-08-27T01:16:36.126Z,100019.78
2022-08-27T01:19:09.142Z,100021.69
2022-08-27T01:21:49.897Z,100018.50
2022-08-27T01:24:41.073Z,100013.59
2022-08-27T01:27:13.610Z,100017.38
2022-08-27T01:29:41.715Z,100014.34
2022-08-27T01:32:25.863Z,100009.25
2022-08-27T01:34:54.082Z,100025.44
2022-08-27T01:37:24.088Z,100022.25
2022-08-27T01:39:52.079Z,100020.91
2022-08-27T01:42:44.083Z,100016.75
2022-08-27T01:45:32.386Z,100020.44
2022-08-27T01:48:00.813Z,100028.88
2022-08-27T01:50:32.222Z,100031.81
2022-08-27T01:53:03.763Z,100035.19
2022-08-27T01:55:31.029Z,100030.09
2022-08-27T01:57:58.465Z,100026.75
2022-08-27T02:00:33.099Z,100028.59
2022-08-27T02:03:01.035Z,100021.63
2022-08-27T02:05:29.383Z,100009.59
2022-08-27T02:07:56.892Z,100014.88
2022-08-27T02:10:32.092Z,100008.19
2022-08-27T02:13:00.542Z,100013.34
2022-08-27T02:15:28.779Z,100015.91
2022-08-27T02:17:56.504Z,100003.56
2022-08-27T02:20:23.864Z,100011.28
2022-08-27T02:22:55.539Z,100009.59
2022-08-27T02:25:22.907Z,100006.03
2022-08-27T02:27:51.076Z,100013.06
2022-08-27T02:30:22.295Z,100003.69
2022-08-27T02:32:49.873Z,99999.44
2022-08-27T02:35:19.442Z,100009.59
2022-08-27T02:37:47.620Z,100003.69
2022-08-27T02:40:18.157Z,100000.75
2022-08-27T02:42:46.942Z,100004.41
2022-08-27T02:45:16.104Z,100000.94
2022-08-27T02:47:43.758Z,99999.25
2022-08-27T02:50:12.516Z,99997.72
2022-08-27T02:52:39.844Z,99996.25
2022-08-27T02:55:08.304Z,99999.44
2022-08-27T02:57:36.570Z,100000.28
2022-08-27T03:00:13.227Z,99995.09
2022-08-27T03:02:40.676Z,99991.88
2022-08-27T03:05:09.312Z,99996.88
2022-08-27T03:07:37.616Z,99999.63
2022-08-27T03:10:05.988Z,99999.63
2022-08-27T03:12:36.349Z,99994.53
2022-08-27T03:15:09.255Z,99997.16
2022-08-27T03:17:55.744Z,99992.25
2022-08-27T03:20:24.184Z,99999.50
2022-08-27T03:22:51.662Z,100000.53
2022-08-27T03:25:19.810Z,100009.00
2022-08-27T03:27:47.522Z,99998.47
2022-08-27T03:30:19.208Z,99991.50
2022-08-27T03:32:46.896Z,99992.25
2022-08-27T03:35:14.387Z,99993.41
2022-08-27T03:37:42.029Z,99998.09
2022-08-27T03:40:10.408Z,99988.84
2022-08-27T03:42:39.220Z,99999.00
2022-08-27T03:45:08.026Z,99997.13
2022-08-27T03:47:36.152Z,100002.59
2022-08-27T03:50:06.345Z,100003.25
2022-08-27T03:52:34.437Z,100000.03
2022-08-27T03:55:02.083Z,100002.59
2022-08-27T03:57:29.318Z,99999.00
2022-08-27T03:59:57.316Z,99997.97
2022-08-27T04:02:24.622Z,99989.75
2022-08-27T04:04:51.996Z,99991.47
2022-08-27T04:07:19.442Z,99988.34
2022-08-27T04:09:46.704Z,99989.38
2022-08-27T04:12:13.832Z,99994.44
2022-08-27T04:14:41.069Z,99994.44
2022-08-27T04:17:08.318Z,99994.44
2022-08-27T04:19:35.553Z,99995.94
2022-08-27T04:22:05.783Z,99999.38
2022-08-27T04:24:34.836Z,100001.19
2022-08-27T04:27:03.031Z,100002.22
2022-08-27T04:29:30.386Z,100010.03
2022-08-27T04:31:58.376Z,100003.78
2022-08-27T04:34:25.576Z,100007.19
2022-08-27T04:36:56.881Z,100005.28
2022-08-27T04:39:24.983Z,99995.81
2022-08-27T04:41:55.837Z,100007.00
2022-08-27T04:44:24.034Z,100003.44
2022-08-27T04:46:56.721Z,100012.94
2022-08-27T04:49:24.593Z,100018.97
2022-08-27T04:51:52.358Z,100013.50
2022-08-27T04:54:26.003Z,100011.91
2022-08-27T04:57:01.786Z,100010.03
2022-08-27T04:59:30.270Z,100025.97
2022-08-27T05:01:57.684Z,100018.78
2022-08-27T05:04:25.071Z,100023.22
2022-08-27T05:06:54.493Z,100021.41
2022-08-27T05:09:24.539Z,100024.06
2022-08-27T05:11:55.694Z,100020.31
2022-08-27T05:14:24.427Z,100013.63
2022-08-27T05:16:52.004Z,100025.22
2022-08-27T05:19:19.221Z,100030.28
2022-08-27T05:21:49.687Z,100026.75
2022-08-27T05:24:18.104Z,100026.38
2022-08-27T05:26:46.423Z,100025.53
2022-08-27T05:29:14.546Z,100025.97
2022-08-27T05:31:42.861Z,100022.25
2022-08-27T05:34:16.439Z,100022.03
2022-08-27T05:36:47.957Z,100015.75
2022-08-27T05:39:17.206Z,100017.03
2022-08-27T05:41:44.607Z,100019.41
2022-08-27T05:44:40.246Z,100018.84
2022-08-27T05:46:59.616Z,100008.16
2022-08-27T05:49:26.918Z,100010.84
2022-08-27T05:51:54.254Z,100010.56
2022-08-27T05:54:21.547Z,100005.09
2022-08-27T05:56:50.318Z,100012.06
2022-08-27T05:59:36.708Z,100003.13
2022-08-27T06:02:04.515Z,100005.75
2022-08-27T06:04:31.829Z,100013.44
2022-08-27T06:06:59.046Z,100002.25
2022-08-27T06:09:29.609Z,100011.38
2022-08-27T06:12:00.002Z,99996.97
2022-08-27T06:14:28.388Z,100003.22
2022-08-27T06:16:56.477Z,100008.94
2022-08-27T06:19:24.447Z,100006.63
2022-08-27T06:22:00.800Z,100001.34
2022-08-27T06:24:37.081Z,100006.19
2022-08-27T06:27:04.467Z,99998.13
2022-08-27T06:29:31.681Z,100010.06
2022-08-27T06:31:58.875Z,100005.06
2022-08-27T06:34:26.272Z,100011.41
2022-08-27T06:36:54.744Z,100012.16
2022-08-27T06:39:21.969Z,99981.84
2022-08-27T06:41:50.511Z,100003.25
2022-08-27T06:44:22.423Z,100006.28
2022-08-27T06:46:49.709Z,100001.84
2022-08-27T06:49:16.990Z,100005.69
2022-08-27T06:51:47.305Z,99999.69
2022-08-27T06:54:16.725Z,99997.28
2022-08-27T06:56:44.897Z,99992.84
2022-08-27T06:59:15.801Z,100002.63
2022-08-27T07:01:46.276Z,99992.75
2022-08-27T07:04:20.179Z,99990.84
2022-08-27T07:06:47.504Z,100000.97
2022-08-27T07:09:15.086Z,100009.66
2022-08-27T07:11:42.851Z,99980.00
2022-08-27T07:14:10.265Z,100003.72
2022-08-27T07:16:39.655Z,99999.50
2022-08-27T07:19:08.319Z,99998.13
2022-08-27T07:21:36.355Z,99997.78
2022-08-27T07:24:05.862Z,99989.34
2022-08-27T07:26:35.145Z,99992.09
2022-08-27T07:29:04.160Z,99997.41
2022-08-27T07:31:31.538Z,99991.19
2022-08-27T07:33:58.952Z,99985.69
2022-08-27T07:36:40.560Z,99981.28
2022-08-27T07:39:14.241Z,99978.72
2022-08-27T07:42:00.420Z,99956.69
2022-08-27T07:44:34.547Z,99977.03
2022-08-27T07:47:03.035Z,99973.44
2022-08-27T07:49:31.933Z,99975.66
2022-08-27T07:51:59.424Z,99968.44
2022-08-27T07:54:27.199Z,99979.78
2022-08-27T07:56:56.187Z,99971.41
2022-08-27T07:59:27.698Z,99979.53
2022-08-27T08:01:56.944Z,99980.69
2022-08-27T08:04:25.384Z,99979.53
2022-08-27T08:06:52.923Z,99972.78
2022-08-27T08:09:22.509Z,99981.88
2022-08-27T08:11:51.374Z,99979.78
2022-08-27T08:14:19.772Z,99978.38
2022-08-27T08:16:47.124Z,99980.97
2022-08-27T08:19:14.696Z,99989.19
2022-08-27T08:21:43.002Z,99983.78
2022-08-27T08:24:10.425Z,99987.75
2022-08-27T08:26:37.848Z,99995.72
2022-08-27T08:29:05.457Z,99988.41
2022-08-27T08:31:33.325Z,99986.88
2022-08-27T08:34:01.197Z,99990.59
2022-08-27T08:36:28.662Z,99991.53
2022-08-27T08:38:56.026Z,99993.66
2022-08-27T08:41:23.481Z,99997.41
2022-08-27T08:43:52.077Z,99989.72
2022-08-27T08:46:26.134Z,99988.44
2022-08-27T08:48:57.715Z,99993.25
2022-08-27T08:51:31.744Z,99993.09
2022-08-27T08:54:04.627Z,99992.56
2022-08-27T08:56:59.905Z,99990.47
2022-08-27T08:59:33.960Z,99986.78
2022-08-27T09:02:01.697Z,99987.50
2022-08-27T09:04:30.363Z,99991.78
2022-08-27T09:07:29.679Z,99989.94
2022-08-27T09:10:34.908Z,99982.41
2022-08-27T09:13:05.838Z,99979.03
2022-08-27T09:15:36.895Z,99984.09
2022-08-27T09:18:14.120Z,99987.16
2022-08-27T09:20:46.617Z,99980.09
2022-08-27T09:23:51.912Z,99974.13
2022-08-27T09:26:26.858Z,99980.81
2022-08-27T09:29:17.664Z,99979.78
2022-08-27T09:31:58.517Z,99981.34
2022-08-27T09:34:34.902Z,99977.97
2022-08-27T09:37:10.716Z,99980.63
2022-08-27T09:39:49.067Z,99975.63
2022-08-27T09:42:37.944Z,99979.28
2022-08-27T09:45:11.880Z,99982.13
2022-08-27T09:47:51.584Z,99983.00
2022-08-27T09:50:22.436Z,99982.56
2022-08-27T09:52:56.743Z,99970.03
2022-08-27T09:55:44.033Z,99978.31
2022-08-27T09:58:43.396Z,99973.84
2022-08-27T10:01:25.991Z,99977.22
2022-08-27T10:04:12.281Z,99966.84
2022-08-27T10:06:46.822Z,99970.06
2022-08-27T10:09:20.362Z,99971.22
2022-08-27T10:12:03.876Z,99970.72
2022-08-27T10:14:53.524Z,99967.22
2022-08-27T10:18:02.864Z,99971.56
2022-08-27T10:21:11.879Z,99976.59
2022-08-27T10:24:23.223Z,99965.13
2022-08-27T10:27:22.744Z,99968.03
2022-08-27T10:30:01.288Z,99972.41
2022-08-27T10:33:04.211Z,99981.22
2022-08-27T10:35:54.771Z,99973.63
2022-08-27T10:38:50.560Z,99977.66
2022-08-27T10:41:28.896Z,99971.88
2022-08-27T10:44:02.387Z,99969.91
2022-08-27T10:46:50.543Z,99958.63
2022-08-27T10:49:42.680Z,99968.13
2022-08-27T10:52:31.664Z,99972.00
2022-08-27T10:55:22.130Z,99964.47
2022-08-27T10:58:10.689Z,99959.31
2022-08-27T11:00:55.679Z,99965.84
2022-08-27T11:03:36.347Z,99975.22
2022-08-27T11:06:25.502Z,99960.13
2022-08-27T11:08:59.582Z,99956.13
2022-08-27T11:14:47.558Z,99959.97
2022-08-27T11:17:32.299Z,99963.63
2022-08-27T11:20:04.865Z,99965.50
2022-08-27T11:22:49.382Z,99963.09
2022-08-27T11:25:52.132Z,99957.06
2022-08-27T11:28:29.684Z,99955.41
2022-08-27T11:31:20.203Z,99955.75
2022-08-27T11:34:08.304Z,99962.97
2022-08-27T11:36:57.316Z,99952.06
2022-08-27T11:39:52.138Z,99951.19
2022-08-27T11:42:57.631Z,99948.69
2022-08-27T11:45:38.916Z,99961.13
2022-08-27T11:48:39.242Z,99936.31
2022-08-27T11:51:10.943Z,99950.22
2022-08-27T11:53:54.554Z,99948.69
2022-08-27T11:56:44.089Z,99945.03
2022-08-27T11:59:12.644Z,99944.34
2022-08-27T12:01:40.611Z,99935.97
2022-08-27T12:04:31.631Z,99927.25
2022-08-27T12:07:25.347Z,99936.34
2022-08-27T12:10:19.947Z,99939.88
2022-08-27T12:12:47.232Z,99939.53
2022-08-27T12:15:27.559Z,99937.72
2022-08-27T12:18:20.289Z,99925.13
2022-08-27T12:21:03.476Z,99926.94
2022-08-27T12:23:45.560Z,99926.25
2022-08-27T12:26:41.863Z,99919.59
2022-08-27T12:29:31.533Z,99924.94
2022-08-27T12:32:11.506Z,99923.28
2022-08-27T12:34:49.971Z,99913.91
2022-08-27T12:37:26.608Z,99921.31
2022-08-27T12:39:57.870Z,99919.28
2022-08-27T12:42:25.227Z,99920.63
2022-08-27T12:44:57.542Z,99908.25
2022-08-27T12:47:25.181Z,99923.97
2022-08-27T12:49:58.853Z,99917.59
2022-08-27T12:52:31.735Z,99910.06
2022-08-27T12:54:59.429Z,99909.44
2022-08-27T12:57:48.105Z,99913.28
2022-08-27T13:00:24.191Z,99910.59
2022-08-27T13:03:21.681Z,99900.19
2022-08-27T13:05:51.233Z,99894.53
2022-08-27T13:08:23.009Z,99897.84
2022-08-27T13:10:51.241Z,99871.38
2022-08-27T13:13:24.584Z,99891.28
2022-08-27T13:15:58.930Z,99896.50
2022-08-27T13:18:29.467Z,99898.50
2022-08-27T13:21:16.628Z,99890.81
2022-08-27T13:23:59.570Z,99891.63
2022-08-27T13:26:30.543Z,99881.94
2022-08-27T13:29:03.250Z,99883.44
2022-08-27T13:31:32.427Z,99884.44
2022-08-27T13:34:01.423Z,99862.03
2022-08-27T13:36:49.330Z,99889.78
2022-08-27T13:39:17.035Z,99884.09
2022-08-27T13:41:47.663Z,99893.47
2022-08-27T13:44:18.910Z,99891.81
2022-08-27T13:47:01.620Z,99871.31
2022-08-27T13:49:32.101Z,99885.19
2022-08-27T13:52:07.316Z,99883.03
2022-08-27T13:54:35.745Z,99885.03
2022-08-27T13:57:10.429Z,99887.84
2022-08-27T13:59:43.248Z,99877.31
2022-08-27T14:02:10.777Z,99885.34
2022-08-27T14:04:40.631Z,99889.31
2022-08-27T14:07:14.500Z,99879.28
2022-08-27T14:09:54.367Z,99886.94
2022-08-27T14:12:38.417Z,99878.53
2022-08-27T14:15:31.991Z,99879.88
2022-08-27T14:17:59.865Z,99879.50
2022-08-27T14:20:28.101Z,99873.47
2022-08-27T14:22:56.264Z,99878.47
2022-08-27T14:25:24.041Z,99876.31
2022-08-27T14:27:54.367Z,99874.59
2022-08-27T14:30:29.115Z,99879.44
2022-08-27T14:33:00.748Z,99870.75
2022-08-27T14:35:30.277Z,99872.72
2022-08-27T14:37:59.304Z,99878.41
2022-08-27T14:40:26.612Z,99870.34
2022-08-27T14:42:53.945Z,99876.00
2022-08-27T14:45:23.625Z,99871.31
2022-08-27T14:47:51.749Z,99866.03
2022-08-27T14:50:19.153Z,99841.38
2022-08-27T14:52:46.482Z,99866.16
2022-08-27T14:55:14.903Z,99855.56
2022-08-27T14:57:42.263Z,99865.25
2022-08-27T15:00:10.984Z,99867.41
2022-08-27T15:02:44.914Z,99865.72
2022-08-27T15:05:17.596Z,99860.38
2022-08-27T15:07:46.197Z,99862.69
2022-08-27T15:10:15.019Z,99854.81
2022-08-27T15:12:42.915Z,99840.38
2022-08-27T15:15:11.584Z,99864.97
2022-08-27T15:17:39.028Z,99857.59
2022-08-27T15:20:11.806Z,99860.09
2022-08-27T15:22:47.344Z,99862.25
2022-08-27T15:25:15.985Z,99847.41
2022-08-27T15:27:43.584Z,99857.81
2022-08-27T15:30:13.824Z,99858.09
2022-08-27T15:32:44.350Z,99856.75
2022-08-27T15:35:15.464Z,99872.78
2022-08-27T15:37:45.063Z,99860.03
2022-08-27T15:40:15.037Z,99862.72
2022-08-27T15:42:42.576Z,99867.38
2022-08-27T15:45:12.135Z,99861.34
2022-08-27T15:47:39.904Z,99858.84
2022-08-27T15:50:08.314Z,99848.22
2022-08-27T15:52:40.669Z,99863.63
2022-08-27T15:55:33.739Z,99870.09
2022-08-27T15:58:01.592Z,99865.06
2022-08-27T16:00:30.576Z,99862.03
2022-08-27T16:02:58.163Z,99858.00
2022-08-27T16:05:28.789Z,99866.31
2022-08-27T16:07:56.415Z,99863.56
2022-08-27T16:10:23.715Z,99861.03
2022-08-27T16:12:51.458Z,99851.56
2022-08-27T16:15:18.943Z,99864.88
2022-08-27T16:17:46.456Z,99871.50
2022-08-27T16:20:16.098Z,99860.88
2022-08-27T16:22:44.644Z,99874.06
2022-08-27T16:25:17.783Z,99867.66
2022-08-27T16:27:46.737Z,99872.44
2022-08-27T16:30:14.777Z,99873.88
2022-08-27T16:32:44.937Z,99872.53
2022-08-27T16:35:12.257Z,99858.78
2022-08-27T16:37:39.689Z,99865.25
2022-08-27T16:40:07.667Z,99856.88
2022-08-27T16:42:43.416Z,99861.78
2022-08-27T16:45:14.220Z,99857.16
2022-08-27T16:48:01.694Z,99867.13
2022-08-27T16:50:35.976Z,99852.72
2022-08-27T16:53:06.296Z,99858.47
2022-08-27T16:55:34.899Z,99855.56
2022-08-27T16:58:02.418Z,99862.28
2022-08-27T17:00:30.379Z,99860.09
2022-08-27T17:02:58.115Z,99853.94
2022-08-27T17:05:41.079Z,99864.59
2022-08-27T17:08:11.603Z,99853.38
2022-08-27T17:10:45.936Z,99860.94
2022-08-27T17:13:15.936Z,99861.25
2022-08-27T17:15:43.662Z,99869.09
2022-08-27T17:18:11.646Z,99871.34
2022-08-27T17:20:38.926Z,99871.91
2022-08-27T17:23:07.856Z,99869.81
2022-08-27T17:25:35.017Z,99876.69
2022-08-27T17:28:02.465Z,99889.56
2022-08-27T17:30:29.813Z,99872.19
2022-08-27T17:32:57.330Z,99884.50
2022-08-27T17:35:24.616Z,99890.50
2022-08-27T17:37:52.291Z,99893.97
2022-08-27T17:40:19.618Z,99899.16
2022-08-27T17:42:46.988Z,99898.72
2022-08-27T17:45:14.378Z,99902.91
2022-08-27T17:47:41.897Z,99898.25
2022-08-27T17:50:09.656Z,99909.28
2022-08-27T17:52:40.287Z,99912.63
2022-08-27T17:55:08.288Z,99919.56
2022-08-27T17:57:40.848Z,99914.34
2022-08-27T18:00:12.968Z,99919.22
2022-08-27T18:02:47.666Z,99921.94
2022-08-27T18:05:16.379Z,99924.97
2022-08-27T18:07:44.420Z,99920.94
2022-08-27T18:10:14.830Z,99931.44
2022-08-27T18:12:43.271Z,99933.59
2022-08-27T18:15:27.226Z,99936.03
2022-08-27T18:17:55.452Z,99941.00
2022-08-27T18:20:25.856Z,99944.06
2022-08-27T18:22:53.342Z,99935.25
2022-08-27T18:25:24.743Z,99945.03
2022-08-27T18:27:56.540Z,99950.59
2022-08-27T18:30:24.749Z,99941.91
2022-08-27T18:32:52.007Z,99943.88
2022-08-27T18:35:25.678Z,99944.13
2022-08-27T18:37:53.459Z,99932.53
2022-08-27T18:40:23.662Z,99945.56
2022-08-27T18:42:50.962Z,99939.19
2022-08-27T18:45:23.294Z,99940.03
2022-08-27T18:47:52.056Z,99942.19
2022-08-27T18:50:20.994Z,99941.13
2022-08-27T18:52:50.575Z,99942.19
2022-08-27T18:55:22.217Z,99943.03
2022-08-27T18:57:49.799Z,99945.84
2022-08-27T19:00:19.421Z,99948.72
2022-08-27T19:02:52.315Z,99950.66
2022-08-27T19:05:27.776Z,99948.47
2022-08-27T19:07:57.500Z,99949.59
2022-08-27T19:10:25.525Z,99959.56
2022-08-27T19:12:53.245Z,99953.09
2022-08-27T19:15:21.111Z,99958.63
2022-08-27T19:17:54.259Z,99954.06
2022-08-27T19:20:22.778Z,99952.63
2022-08-27T19:22:50.835Z,99952.84
2022-08-27T19:25:18.429Z,99949.50
2022-08-27T19:27:47.096Z,99953.09
2022-08-27T19:30:16.377Z,99957.66
2022-08-27T19:32:44.378Z,99958.94
2022-08-27T19:35:11.818Z,99954.47
2022-08-27T19:37:52.620Z,99947.75
2022-08-27T19:40:22.376Z,99944.59
2022-08-27T19:42:50.377Z,99949.31
2022-08-27T19:45:23.323Z,99956.28
2022-08-27T19:47:52.897Z,99959.28
2022-08-27T19:50:22.456Z,99949.41
2022-08-27T19:52:50.698Z,99946.72
2022-08-27T19:55:18.021Z,99955.25
2022-08-27T19:57:45.708Z,99950.00
2022-08-27T20:00:15.700Z,99959.59
2022-08-27T20:02:43.003Z,99956.88
2022-08-27T20:05:18.910Z,99959.06
2022-08-27T20:07:52.621Z,99956.84
2022-08-27T20:10:23.137Z,99954.66
2022-08-27T20:12:53.602Z,99953.84
2022-08-27T20:15:23.457Z,99964.66
2022-08-27T20:17:52.648Z,99962.97
2022-08-27T20:20:23.287Z,99967.31
2022-08-27T20:22:51.290Z,99961.50
2022-08-27T20:25:19.457Z,99956.22
2022-08-27T20:27:47.904Z,99965.34
2022-08-27T20:30:16.136Z,99964.91
2022-08-27T20:32:43.498Z,99959.63
2022-08-27T20:35:11.298Z,99954.78
2022-08-27T20:37:42.269Z,99958.16
2022-08-27T20:40:13.749Z,99944.97
2022-08-27T20:42:41.099Z,99950.84
2022-08-27T20:45:12.169Z,99952.66
2022-08-27T20:47:41.330Z,99956.88
2022-08-27T20:50:09.815Z,99950.75
2022-08-27T20:52:40.385Z,99950.75
2022-08-27T20:55:09.967Z,99942.22
2022-08-27T20:57:37.350Z,99952.66
2022-08-27T21:00:21.817Z,99951.81
2022-08-27T21:02:49.456Z,99945.69
2022-08-27T21:05:19.376Z,99942.31
2022-08-27T21:07:48.957Z,99939.16
2022-08-27T21:10:16.950Z,99942.53
2022-08-27T21:12:45.179Z,99941.56
2022-08-27T21:15:13.435Z,99947.59
2022-08-27T21:17:40.707Z,99941.47
2022-08-27T21:20:11.173Z,99941.47
2022-08-27T21:22:39.254Z,99945.28
2022-08-27T21:25:07.868Z,99943.38
2022-08-27T21:27:34.989Z,99936.22
2022-08-27T21:30:02.258Z,99938.84
2022-08-27T21:32:29.661Z,99937.88
2022-08-27T21:34:56.963Z,99944.88
2022-08-27T21:37:24.169Z,99928.59
2022-08-27T21:39:51.467Z,99939.59
2022-08-27T21:42:18.737Z,99934.31
2022-08-27T21:44:46.129Z,99938.75
2022-08-27T21:47:13.511Z,99936.44
2022-08-27T21:49:41.178Z,99934.00
2022-08-27T21:52:08.481Z,99927.97
2022-08-27T21:54:38.934Z,99929.88
2022-08-27T21:57:07.799Z,99934.44
2022-08-27T21:59:41.527Z,99930.53
2022-08-27T22:02:28.937Z,99922.53
2022-08-27T22:04:56.537Z,99933.31
2022-08-27T22:07:24.527Z,99937.28
2022-08-27T22:09:51.771Z,99938.56
2022-08-27T22:12:19.053Z,99941.94
2022-08-27T22:14:46.187Z,99940.25
2022-08-27T22:17:15.982Z,99948.03
2022-08-27T22:19:43.373Z,99947.59
2022-08-27T22:22:10.827Z,99937.69
2022-08-27T22:24:38.037Z,99934.00
2022-08-27T22:27:06.396Z,99957.75
2022-08-27T22:29:33.641Z,99942.66
2022-08-27T22:32:00.794Z,99940.75
2022-08-27T22:34:27.914Z,99934.53
2022-08-27T22:36:55.072Z,99938.13
2022-08-27T22:39:22.308Z,99919.94
2022-08-27T22:41:51.447Z,99944.41
2022-08-27T22:44:18.674Z,99932.81
2022-08-27T22:46:45.898Z,99938.25
2022-08-27T22:49:13.165Z,99920.69
2022-08-27T22:51:40.314Z,99916.06
2022-08-27T22:54:08.219Z,99923.59
2022-08-27T22:56:35.895Z,99928.03
2022-08-27T22:59:03.884Z,99937.25
2022-08-27T23:01:36.453Z,99933.66
2022-08-27T23:04:06.531Z,99940.91
2022-08-27T23:06:34.042Z,99939.16
2022-08-27T23:09:02.062Z,99934.09
2022-08-27T23:14:00.364Z,99926.22
2022-08-27T23:16:28.546Z,99927.72
2022-08-27T23:18:55.759Z,99929.81
2022-08-27T23:21:23.262Z,99922.84
2022-08-27T23:23:50.375Z,99924.72
2022-08-27T23:26:36.090Z,99924.72
2022-08-27T23:29:03.200Z,99932.94
2022-08-27T23:31:30.393Z,99927.88
2022-08-27T23:33:57.661Z,99928.91
2022-08-27T23:36:25.161Z,99931.75
2022-08-27T23:38:52.271Z,99929.13
2022-08-27T23:41:19.393Z,99931.63
2022-08-27T23:43:46.749Z,99927.59
2022-08-27T23:46:14.075Z,99931.75
2022-08-27T23:48:41.287Z,99927.97
2022-08-27T23:51:09.167Z,99926.25
2022-08-27T23:53:38.302Z,99929.19
2022-08-27T23:56:06.333Z,99929.09
2022-08-27T23:58:33.423Z,99935.09
